createdAt,value
2022-08-10T00:01:56.352Z,99357.22
2022-08-10T00:04:26.319Z,99350.91
2022-08-10T00:06:57.070Z,99349.72
2022-08-10T00:09:27.197Z,99357.22
2022-08-10T00:11:59.488Z,99360.38
2022-08-10T00:14:29.209Z,99361.94
2022-08-10T00:16:58.298Z,99359.19
2022-08-10T00:19:28.163Z,99352.88
2022-08-10T00:22:19.945Z,99355.66
2022-08-10T00:24:49.617Z,99355.63
2022-08-10T00:27:51.948Z,99360.34
2022-08-10T00:30:10.587Z,99359.16
2022-08-10T00:32:40.041Z,99363.91
2022-08-10T00:35:09.797Z,99365.47
2022-08-10T00:37:40.473Z,99358.38
2022-08-10T00:40:11.064Z,99361.13
2022-08-10T00:42:40.717Z,99365.09
2022-08-10T00:45:10.473Z,99361.13
2022-08-10T00:47:39.825Z,99358.78
2022-08-10T00:50:10.582Z,99354.06
2022-08-10T00:52:42.083Z,99353.25
2022-08-10T00:55:11.856Z,99354.84
2022-08-10T00:57:43.344Z,99363.50
2022-08-10T01:00:13.159Z,99360.38
2022-08-10T01:02:42.740Z,99358.34
2022-08-10T01:05:15.457Z,99359.91
2022-08-10T01:07:58.357Z,99352.81
2022-08-10T01:10:40.018Z,99362.28
2022-08-10T01:13:14.788Z,99361.09
2022-08-10T01:15:55.016Z,99354.75
2022-08-10T01:18:39.997Z,99355.13
2022-08-10T01:21:36.394Z,99346.13
2022-08-10T01:24:24.954Z,99345.28
2022-08-10T01:27:17.457Z,99348.41
2022-08-10T01:30:08.376Z,99352.75
2022-08-10T01:32:49.155Z,99351.16
2022-08-10T01:35:25.925Z,99347.59
2022-08-10T01:38:05.407Z,99356.25
2022-08-10T01:40:38.663Z,99360.19
2022-08-10T01:43:12.425Z,99362.13
2022-08-10T01:45:46.873Z,99361.78
2022-08-10T01:48:31.794Z,99368.88
2022-08-10T01:51:16.062Z,99376.38
2022-08-10T01:53:59.180Z,99376.78
2022-08-10T01:56:33.653Z,99367.28
2022-08-10T01:59:07.916Z,99364.16
2022-08-10T02:01:42.961Z,99367.31
2022-08-10T02:04:16.796Z,99370.88
2022-08-10T02:06:49.238Z,99364.94
2022-08-10T02:09:25.439Z,99375.59
2022-08-10T02:12:08.873Z,99382.72
2022-08-10T02:14:44.616Z,99375.59
2022-08-10T02:18:00.527Z,99381.50
2022-08-10T02:20:14.345Z,99385.09
2022-08-10T02:22:47.547Z,99390.25
2022-08-10T02:25:39.709Z,99390.25
2022-08-10T02:28:11.481Z,99383.16
2022-08-10T02:30:41.733Z,99383.19
2022-08-10T02:33:17.230Z,99383.63
2022-08-10T02:35:54.941Z,99387.16
2022-08-10T02:38:59.269Z,99386.00
2022-08-10T02:45:16.174Z,99382.44
2022-08-10T02:45:18.653Z,99387.97
2022-08-10T02:47:28.024Z,99388.75
2022-08-10T02:50:08.059Z,99389.94
2022-08-10T02:52:47.701Z,99391.97
2022-08-10T02:55:27.260Z,99393.50
2022-08-10T02:58:16.564Z,99394.31
2022-08-10T03:00:51.718Z,99390.38
2022-08-10T03:03:25.090Z,99387.19
2022-08-10T03:06:02.379Z,99389.56
2022-08-10T03:08:41.189Z,99388.44
2022-08-10T03:11:15.377Z,99388.38
2022-08-10T03:13:59.525Z,99386.00
2022-08-10T03:16:33.406Z,99387.59
2022-08-10T03:19:06.131Z,99382.47
2022-08-10T03:22:00.227Z,99391.13
2022-08-10T03:24:33.412Z,99388.78
2022-08-10T03:27:04.770Z,99387.19
2022-08-10T03:30:31.975Z,99384.44
2022-08-10T03:32:27.005Z,99386.78
2022-08-10T03:34:58.835Z,99386.38
2022-08-10T03:37:29.727Z,99387.16
2022-08-10T03:39:59.558Z,99391.53
2022-08-10T03:42:30.176Z,99393.53
2022-08-10T03:45:00.777Z,99395.91
2022-08-10T03:47:32.292Z,99397.84
2022-08-10T03:50:27.884Z,99397.06
2022-08-10T03:52:56.190Z,99399.06
2022-08-10T03:56:28.332Z,99397.06
2022-08-10T03:58:16.742Z,99386.00
2022-08-10T04:00:48.525Z,99388.34
2022-08-10T04:03:18.717Z,99391.09
2022-08-10T04:05:48.159Z,99384.75
2022-08-10T04:08:19.839Z,99383.97
2022-08-10T04:10:50.134Z,99385.91
2022-08-10T04:13:23.195Z,99387.13
2022-08-10T04:15:52.774Z,99387.91
2022-08-10T04:18:22.275Z,99379.28
2022-08-10T04:20:56.807Z,99391.91
2022-08-10T04:23:30.653Z,99396.25
2022-08-10T04:26:04.063Z,99396.25
2022-08-10T04:28:33.693Z,99406.09
2022-08-10T04:31:05.649Z,99407.59
2022-08-10T04:33:36.607Z,99403.59
2022-08-10T04:36:07.926Z,99402.25
2022-08-10T04:38:41.976Z,99406.06
2022-08-10T04:41:13.533Z,99401.69
2022-08-10T04:43:43.369Z,99416.09
2022-08-10T04:46:55.347Z,99412.97
2022-08-10T04:49:04.872Z,99402.50
2022-08-10T04:51:34.148Z,99410.00
2022-08-10T04:54:08.199Z,99411.44
2022-08-10T04:56:39.249Z,99416.44
2022-08-10T04:59:12.490Z,99413.97
2022-08-10T05:02:29.254Z,99417.59
2022-08-10T05:04:38.343Z,99411.53
2022-08-10T05:07:10.704Z,99411.75
2022-08-10T05:10:01.226Z,99407.75
2022-08-10T05:12:37.174Z,99396.34
2022-08-10T05:15:09.733Z,99389.34
2022-08-10T05:17:40.702Z,99393.69
2022-08-10T05:20:12.478Z,99383.41
2022-08-10T05:22:44.787Z,99380.28
2022-08-10T05:25:18.532Z,99381.72
2022-08-10T05:27:49.127Z,99385.69
2022-08-10T05:30:21.016Z,99385.75
2022-08-10T05:32:56.114Z,99379.00
2022-08-10T05:35:28.598Z,99381.22
2022-08-10T05:38:10.300Z,99385.88
2022-08-10T05:40:47.834Z,99385.38
2022-08-10T05:43:20.242Z,99388.09
2022-08-10T05:46:17.682Z,99391.25
2022-08-10T05:48:56.851Z,99390.97
2022-08-10T05:51:31.551Z,99394.88
2022-08-10T05:54:06.767Z,99410.34
2022-08-10T05:56:55.860Z,99406.22
2022-08-10T06:00:32.838Z,99402.44
2022-08-10T06:02:32.708Z,99410.31
2022-08-10T06:05:11.744Z,99410.19
2022-08-10T06:07:48.780Z,99415.06
2022-08-10T06:10:32.241Z,99420.94
2022-08-10T06:13:26.761Z,99422.88
2022-08-10T06:16:05.424Z,99425.59
2022-08-10T06:18:37.972Z,99433.28
2022-08-10T06:21:12.690Z,99438.88
2022-08-10T06:23:57.858Z,99443.63
2022-08-10T06:26:32.239Z,99444.91
2022-08-10T06:29:11.313Z,99444.59
2022-08-10T06:31:48.434Z,99458.44
2022-08-10T06:34:26.434Z,99457.00
2022-08-10T06:37:00.203Z,99456.31
2022-08-10T06:39:34.951Z,99454.38
2022-08-10T06:42:18.632Z,99452.94
2022-08-10T06:45:07.446Z,99458.03
2022-08-10T06:47:43.283Z,99459.91
2022-08-10T06:50:45.414Z,99457.38
2022-08-10T06:53:17.154Z,99460.03
2022-08-10T06:55:56.849Z,99451.53
2022-08-10T06:58:30.684Z,99456.56
2022-08-10T07:01:05.195Z,99450.03
2022-08-10T07:03:40.257Z,99450.03
2022-08-10T07:06:13.152Z,99454.41
2022-08-10T07:08:44.970Z,99463.50
2022-08-10T07:11:17.459Z,99462.53
2022-08-10T07:14:15.289Z,99458.44
2022-08-10T07:16:43.945Z,99459.94
2022-08-10T07:19:15.806Z,99463.84
2022-08-10T07:21:54.016Z,99461.00
2022-08-10T07:24:30.494Z,99463.22
2022-08-10T07:27:03.258Z,99469.97
2022-08-10T07:29:53.430Z,99472.94
2022-08-10T07:32:26.150Z,99461.06
2022-08-10T07:35:00.823Z,99473.56
2022-08-10T07:37:38.706Z,99467.16
2022-08-10T07:40:12.058Z,99471.38
2022-08-10T07:42:46.004Z,99471.31
2022-08-10T07:45:17.307Z,99461.69
2022-08-10T07:47:55.025Z,99468.22
2022-08-10T07:50:27.314Z,99465.75
2022-08-10T07:53:03.210Z,99462.28
2022-08-10T07:56:07.331Z,99453.31
2022-08-10T07:58:32.247Z,99445.50
2022-08-10T08:01:03.804Z,99452.38
2022-08-10T08:03:36.219Z,99452.16
2022-08-10T08:06:11.931Z,99457.09
2022-08-10T08:08:47.181Z,99461.03
2022-08-10T08:11:25.806Z,99462.19
2022-08-10T08:13:57.972Z,99451.50
2022-08-10T08:16:27.771Z,99448.75
2022-08-10T08:24:09.793Z,99445.75
2022-08-10T08:24:44.840Z,99450.78
2022-08-10T08:27:17.753Z,99451.38
2022-08-10T08:29:49.940Z,99456.88
2022-08-10T08:32:22.774Z,99450.47
2022-08-10T08:35:00.732Z,99440.66
2022-08-10T08:38:30.525Z,99450.78
2022-08-10T08:40:28.721Z,99441.03
2022-08-10T08:43:36.075Z,99434.22
2022-08-10T08:46:32.409Z,99434.66
2022-08-10T08:50:08.263Z,99439.38
2022-08-10T08:52:45.690Z,99442.44
2022-08-10T08:56:03.452Z,99436.78
2022-08-10T08:58:34.842Z,99429.66
2022-08-10T09:01:20.384Z,99432.19
2022-08-10T09:04:19.769Z,99424.94
2022-08-10T09:08:00.040Z,99436.91
2022-08-10T09:10:15.997Z,99436.88
2022-08-10T09:12:56.833Z,99427.72
2022-08-10T09:15:40.867Z,99423.56
2022-08-10T09:18:22.437Z,99421.88
2022-08-10T09:21:00.743Z,99421.31
2022-08-10T09:24:01.487Z,99420.91
2022-08-10T09:26:37.481Z,99407.59
2022-08-10T09:29:14.075Z,99415.38
2022-08-10T09:31:55.524Z,99406.91
2022-08-10T09:36:23.507Z,99403.19
2022-08-10T09:38:01.080Z,99410.56
2022-08-10T09:40:59.375Z,99405.50
2022-08-10T09:43:51.515Z,99403.28
2022-08-10T09:46:51.778Z,99402.25
2022-08-10T09:49:53.829Z,99411.81
2022-08-10T09:52:30.921Z,99418.81
2022-08-10T09:55:17.122Z,99413.50
2022-08-10T09:58:00.033Z,99417.81
2022-08-10T10:00:46.847Z,99412.00
2022-08-10T10:03:28.761Z,99410.81
2022-08-10T10:06:07.333Z,99407.47
2022-08-10T10:08:46.482Z,99402.50
2022-08-10T10:11:23.067Z,99390.50
2022-08-10T10:14:31.704Z,99403.31
2022-08-10T10:17:14.723Z,99402.13
2022-08-10T10:20:08.137Z,99401.78
2022-08-10T10:22:54.407Z,99404.75
2022-08-10T10:25:50.848Z,99401.66
2022-08-10T10:29:19.809Z,99401.84
2022-08-10T10:31:46.723Z,99400.41
2022-08-10T10:34:32.144Z,99394.78
2022-08-10T10:37:08.161Z,99393.59
2022-08-10T10:39:45.117Z,99388.44
2022-08-10T10:42:44.726Z,99396.22
2022-08-10T10:45:28.855Z,99400.16
2022-08-10T10:48:10.664Z,99403.63
2022-08-10T10:51:00.206Z,99392.19
2022-08-10T10:53:40.136Z,99384.94
2022-08-10T10:56:19.061Z,99390.97
2022-08-10T10:59:33.301Z,99389.22
2022-08-10T11:02:12.304Z,99393.13
2022-08-10T11:04:47.512Z,99398.28
2022-08-10T11:07:30.947Z,99384.28
2022-08-10T11:10:31.968Z,99398.25
2022-08-10T11:14:23.515Z,99395.50
2022-08-10T11:16:28.702Z,99395.19
2022-08-10T11:19:11.145Z,99395.38
2022-08-10T11:21:57.455Z,99398.59
2022-08-10T11:24:42.778Z,99396.06
2022-08-10T11:27:40.944Z,99400.00
2022-08-10T11:30:15.189Z,99399.59
2022-08-10T11:33:05.227Z,99400.34
2022-08-10T11:35:43.190Z,99400.22
2022-08-10T11:38:34.660Z,99399.94
2022-08-10T11:42:08.838Z,99392.53
2022-08-10T11:44:32.920Z,99387.00
2022-08-10T11:47:11.672Z,99391.28
2022-08-10T11:49:50.840Z,99383.50
2022-08-10T11:52:30.078Z,99386.50
2022-08-10T11:55:11.058Z,99385.97
2022-08-10T11:57:54.795Z,99385.00
2022-08-10T12:00:29.515Z,99390.09
2022-08-10T12:03:08.992Z,99396.63
2022-08-10T12:05:46.580Z,99386.66
2022-08-10T12:10:02.259Z,99386.47
2022-08-10T12:11:29.613Z,99393.22
2022-08-10T12:14:21.376Z,99400.66
2022-08-10T12:16:57.897Z,99400.66
2022-08-10T12:20:01.148Z,99401.16
2022-08-10T12:22:37.773Z,99400.00
2022-08-10T12:25:18.077Z,99412.66
2022-08-10T12:28:15.437Z,99409.06
2022-08-10T12:30:55.973Z,99398.72
2022-08-10T12:33:32.418Z,99393.22
2022-08-10T12:36:29.565Z,99392.16
2022-08-10T12:39:09.299Z,99390.56
2022-08-10T12:41:46.765Z,99384.34
2022-08-10T12:44:40.958Z,99384.97
2022-08-10T12:50:33.314Z,99383.59
2022-08-10T12:53:22.917Z,99370.16
2022-08-10T12:56:30.130Z,99387.75
2022-08-10T12:59:08.390Z,99384.97
2022-08-10T13:02:06.879Z,99379.34
2022-08-10T13:04:44.135Z,99383.31
2022-08-10T13:08:25.393Z,99384.16
2022-08-10T13:10:25.641Z,99376.72
2022-08-10T13:13:14.944Z,99384.84
2022-08-10T13:15:51.257Z,99376.63
2022-08-10T13:18:31.906Z,99382.72
2022-08-10T13:21:20.013Z,99385.25
2022-08-10T13:24:04.447Z,99377.28
2022-08-10T13:27:24.722Z,99387.06
2022-08-10T13:29:36.899Z,99376.94
2022-08-10T13:32:11.158Z,99374.34
2022-08-10T13:34:48.040Z,99368.25
2022-08-10T13:37:25.283Z,99373.41
2022-08-10T13:40:00.792Z,99366.34
2022-08-10T13:42:35.511Z,99372.69
2022-08-10T13:45:21.070Z,99373.56
2022-08-10T13:47:54.409Z,99388.69
2022-08-10T13:50:37.543Z,99381.34
2022-08-10T13:53:18.809Z,99376.44
2022-08-10T13:56:09.430Z,99377.31
2022-08-10T13:58:40.888Z,99373.94
2022-08-10T14:01:15.407Z,99383.22
2022-08-10T14:03:47.552Z,99381.88
2022-08-10T14:06:18.764Z,99382.50
2022-08-10T14:08:51.076Z,99384.09
2022-08-10T14:11:25.804Z,99381.47
2022-08-10T14:13:59.156Z,99383.94
2022-08-10T14:16:29.780Z,99382.72
2022-08-10T14:19:04.867Z,99381.03
2022-08-10T14:21:44.418Z,99377.59
2022-08-10T14:24:26.479Z,99379.31
2022-08-10T14:27:12.608Z,99378.25
2022-08-10T14:29:47.742Z,99379.31
2022-08-10T14:32:19.242Z,99379.41
2022-08-10T14:36:14.896Z,99376.28
2022-08-10T14:37:49.786Z,99377.91
2022-08-10T14:40:26.025Z,99372.91
2022-08-10T14:43:02.422Z,99386.50
2022-08-10T14:45:36.185Z,99379.72
2022-08-10T14:48:17.039Z,99379.44
2022-08-10T14:50:55.914Z,99388.13
2022-08-10T14:53:28.954Z,99392.81
2022-08-10T14:56:04.927Z,99395.09
2022-08-10T14:58:59.058Z,99393.63
2022-08-10T15:02:38.257Z,99392.28
2022-08-10T15:04:30.900Z,99393.25
2022-08-10T15:07:11.850Z,99397.50
2022-08-10T15:10:00.847Z,99399.16
2022-08-10T15:12:46.162Z,99395.94
2022-08-10T15:15:28.318Z,99409.56
2022-08-10T15:18:02.894Z,99402.50
2022-08-10T15:20:37.200Z,99403.94
2022-08-10T15:23:29.915Z,99393.88
2022-08-10T15:26:11.391Z,99396.41
2022-08-10T15:29:22.406Z,99394.56
2022-08-10T15:31:55.380Z,99398.38
2022-08-10T15:34:45.250Z,99382.91
2022-08-10T15:37:40.407Z,99393.66
2022-08-10T15:40:25.482Z,99398.56
2022-08-10T15:43:05.521Z,99400.94
2022-08-10T15:46:09.659Z,99402.59
2022-08-10T15:48:49.156Z,99405.13
2022-08-10T15:51:27.977Z,99398.78
2022-08-10T15:54:11.935Z,99399.41
2022-08-10T15:56:46.117Z,99404.50
2022-08-10T15:59:20.914Z,99407.63
2022-08-10T16:02:13.522Z,99404.50
2022-08-10T16:04:53.764Z,99415.16
2022-08-10T16:07:45.402Z,99419.59
2022-08-10T16:10:28.838Z,99426.59
2022-08-10T16:13:01.626Z,99425.88
2022-08-10T16:15:33.919Z,99421.19
2022-08-10T16:18:08.752Z,99418.69
2022-08-10T16:20:47.956Z,99421.13
2022-08-10T16:23:28.917Z,99422.78
2022-08-10T16:26:13.272Z,99423.97
2022-08-10T16:28:49.929Z,99418.63
2022-08-10T16:31:24.619Z,99418.03
2022-08-10T16:33:58.273Z,99425.50
2022-08-10T16:36:39.554Z,99427.75
2022-08-10T16:39:18.241Z,99423.50
2022-08-10T16:42:06.054Z,99434.38
2022-08-10T16:44:40.742Z,99429.22
2022-08-10T16:47:15.644Z,99433.41
2022-08-10T16:49:47.784Z,99441.81
2022-08-10T16:52:26.554Z,99447.22
2022-08-10T16:55:08.127Z,99456.78
2022-08-10T16:57:58.601Z,99452.44
2022-08-10T17:00:30.931Z,99457.81
2022-08-10T17:03:22.896Z,99466.31
2022-08-10T17:06:10.974Z,99469.53
2022-08-10T17:08:53.313Z,99471.88
2022-08-10T17:11:29.335Z,99474.34
2022-08-10T17:14:00.419Z,99473.97
2022-08-10T17:16:39.352Z,99470.38
2022-08-10T17:19:15.410Z,99477.03
2022-08-10T17:21:55.743Z,99470.78
2022-08-10T17:24:33.105Z,99474.28
2022-08-10T17:28:05.714Z,99484.28
2022-08-10T17:30:15.788Z,99480.72
2022-08-10T17:32:53.351Z,99480.41
2022-08-10T17:35:30.595Z,99480.81
2022-08-10T17:38:11.416Z,99489.16
2022-08-10T17:40:51.591Z,99487.00
2022-08-10T17:43:58.555Z,99488.75
2022-08-10T17:46:14.965Z,99492.38
2022-08-10T17:48:46.266Z,99492.41
2022-08-10T17:51:18.410Z,99496.34
2022-08-10T17:53:52.036Z,99496.44
2022-08-10T17:56:26.270Z,99497.69
2022-08-10T17:59:02.851Z,99500.56
2022-08-10T18:01:40.919Z,99498.53
2022-08-10T18:04:35.620Z,99498.84
2022-08-10T18:07:14.182Z,99502.47
2022-08-10T18:09:50.028Z,99500.47
2022-08-10T18:12:34.547Z,99499.25
2022-08-10T18:15:13.336Z,99496.22
2022-08-10T18:17:47.870Z,99502.22
2022-08-10T18:20:20.012Z,99498.41
2022-08-10T18:22:51.530Z,99502.84
2022-08-10T18:25:24.043Z,99502.22
2022-08-10T18:28:03.862Z,99509.38
2022-08-10T18:30:46.377Z,99501.91
2022-08-10T18:33:20.148Z,99513.50
2022-08-10T18:35:53.734Z,99517.94
2022-08-10T18:38:24.755Z,99506.19
2022-08-10T18:40:59.207Z,99505.38
2022-08-10T18:44:10.080Z,99496.63
2022-08-10T18:46:45.026Z,99499.94
2022-08-10T18:49:21.303Z,99505.16
2022-08-10T18:51:51.955Z,99503.31
2022-08-10T18:54:39.760Z,99506.06
2022-08-10T18:57:29.429Z,99503.69
2022-08-10T19:00:10.914Z,99503.31
2022-08-10T19:03:13.258Z,99506.13
2022-08-10T19:06:15.297Z,99516.78
2022-08-10T19:08:59.824Z,99517.28
2022-08-10T19:11:46.659Z,99509.84
2022-08-10T19:14:20.887Z,99514.66
2022-08-10T19:17:18.701Z,99515.47
2022-08-10T19:19:57.509Z,99529.78
2022-08-10T19:22:30.079Z,99536.91
2022-08-10T19:25:08.389Z,99532.97
2022-08-10T19:27:50.483Z,99532.56
2022-08-10T19:30:21.814Z,99533.38
2022-08-10T19:33:19.452Z,99526.63
2022-08-10T19:36:04.154Z,99521.47
2022-08-10T19:38:49.422Z,99520.69
2022-08-10T19:41:32.154Z,99531.78
2022-08-10T19:44:07.382Z,99535.34
2022-08-10T19:46:42.572Z,99535.78
2022-08-10T19:49:24.450Z,99534.97
2022-08-10T19:52:10.870Z,99532.25
2022-08-10T19:54:56.070Z,99542.16
2022-08-10T19:57:36.203Z,99539.38
2022-08-10T20:00:19.430Z,99540.19
2022-08-10T20:03:07.967Z,99545.34
2022-08-10T20:06:18.395Z,99555.97
2022-08-10T20:08:57.129Z,99540.19
2022-08-10T20:11:45.611Z,99545.75
2022-08-10T20:14:23.165Z,99552.06
2022-08-10T20:17:00.618Z,99557.22
2022-08-10T20:19:52.877Z,99552.91
2022-08-10T20:22:31.651Z,99556.06
2022-08-10T20:25:13.878Z,99557.66
2022-08-10T20:28:00.279Z,99558.84
2022-08-10T20:30:36.226Z,99568.34
2022-08-10T20:33:11.570Z,99562.81
2022-08-10T20:35:51.787Z,99571.88
2022-08-10T20:38:30.001Z,99570.34
2022-08-10T20:41:10.698Z,99571.13
2022-08-10T20:43:48.925Z,99563.59
2022-08-10T20:46:27.833Z,99566.41
2022-08-10T20:49:03.196Z,99560.88
2022-08-10T20:51:57.333Z,99558.88
2022-08-10T20:54:34.999Z,99565.19
2022-08-10T20:57:55.608Z,99564.03
2022-08-10T21:00:32.608Z,99562.81
2022-08-10T21:03:22.108Z,99558.84
2022-08-10T21:06:04.613Z,99562.44
2022-08-10T21:08:46.601Z,99559.28
2022-08-10T21:11:31.404Z,99569.13
2022-08-10T21:14:13.516Z,99575.47
2022-08-10T21:16:59.686Z,99567.19
2022-08-10T21:20:02.500Z,99567.56
2022-08-10T21:22:40.978Z,99566.00
2022-08-10T21:25:15.461Z,99564.78
2022-08-10T21:28:07.751Z,99570.34
2022-08-10T21:30:53.078Z,99573.09
2022-08-10T21:33:33.683Z,99563.63
2022-08-10T21:36:12.864Z,99570.72
2022-08-10T21:38:57.261Z,99573.09
2022-08-10T21:41:59.661Z,99579.78
2022-08-10T21:45:10.449Z,99576.66
2022-08-10T21:48:17.363Z,99582.56
2022-08-10T21:51:16.695Z,99583.75
2022-08-10T21:57:13.492Z,99586.47
2022-08-10T22:00:09.007Z,99582.53
2022-08-10T22:03:00.902Z,99577.78
2022-08-10T22:05:51.911Z,99585.25
2022-08-10T22:08:45.583Z,99580.56
2022-08-10T22:11:39.635Z,99586.09
2022-08-10T22:14:34.039Z,99583.31
2022-08-10T22:18:00.036Z,99582.16
2022-08-10T22:20:44.478Z,99586.09
2022-08-10T22:23:53.528Z,99592.41
2022-08-10T22:27:01.478Z,99588.44
2022-08-10T22:29:55.426Z,99593.16
2022-08-10T22:32:55.939Z,99592.38
2022-08-10T22:36:07.402Z,99588.44
2022-08-10T22:39:13.503Z,99592.78
2022-08-10T22:42:10.925Z,99590.00
2022-08-10T22:45:03.294Z,99596.28
2022-08-10T22:47:53.816Z,99586.78
2022-08-10T22:50:27.132Z,99590.69
2022-08-10T22:53:05.513Z,99588.31
2022-08-10T22:55:56.400Z,99591.50
2022-08-10T22:58:42.968Z,99589.13
2022-08-10T23:01:40.688Z,99600.16
2022-08-10T23:04:18.314Z,99597.00
2022-08-10T23:06:55.955Z,99593.41
2022-08-10T23:09:28.590Z,99593.72
2022-08-10T23:12:01.870Z,99596.06
2022-08-10T23:14:36.314Z,99595.31
2022-08-10T23:18:00.688Z,99593.72
2022-08-10T23:20:24.696Z,99601.63
2022-08-10T23:23:07.439Z,99594.13
2022-08-10T23:25:56.693Z,99600.06
2022-08-10T23:28:38.729Z,99595.28
2022-08-10T23:32:01.211Z,99601.97
2022-08-10T23:34:10.446Z,99598.44
2022-08-10T23:36:42.681Z,99597.69
2022-08-10T23:39:25.514Z,99591.75
2022-08-10T23:42:06.956Z,99592.16
2022-08-10T23:44:42.121Z,99598.41
2022-08-10T23:47:14.051Z,99590.56
2022-08-10T23:49:44.493Z,99599.22
2022-08-10T23:52:18.391Z,99599.22
2022-08-10T23:54:51.417Z,99594.47
2022-08-10T23:57:24.541Z,99608.59
2022-08-10T23:59:56.985Z,99597.56
